CDG8805 ZSJN-ZUCK
Flight info
| Callsign | CDG8805 |
|---|---|
| Flight time | 2h 8m |
| Altitude | 27600 |
| Route | EXUVU W4 LIMGI W152 TAREX W278 AVDIG W666 VINEX |
| Aircraft | B738/M-SDE2E3FGHIRWXY/LB1 |
Departure
| Time | 2026-04-21 09:53 |
|---|---|
| Airport | Jinan Yaoqiang International Airport (ZSJN) |
Arrival
| Time | 2026-04-21 12:01 |
|---|---|
| Airport | Chongqing Jiangbei International Airport (ZUCK) |
| Time | Latitude | Longitude | Altitude | Speed | Heading |
|---|---|---|---|---|---|
| 2026-04-21 09:20 | 36.85430 | 117.20998 | 83 ft | 0 kts | 335° |
| 2026-04-21 09:42 | 36.85429 | 117.20998 | 83 ft | 1 kts | 335° |
| 2026-04-21 09:42 | 36.85415 | 117.21007 | 83 ft | 2 kts | 335° |
| 2026-04-21 09:42 | 36.85401 | 117.21014 | 83 ft | 2 kts | 335° |
| 2026-04-21 09:42 | 36.85387 | 117.21022 | 83 ft | 2 kts | 335° |
| 2026-04-21 09:43 | 36.85374 | 117.21029 | 83 ft | 2 kts | 2° |
| 2026-04-21 09:43 | 36.85360 | 117.21022 | 83 ft | 2 kts | 44° |
| 2026-04-21 09:43 | 36.85355 | 117.21014 | 83 ft | 0 kts | 67° |
| 2026-04-21 09:43 | 36.85352 | 117.21008 | 83 ft | 0 kts | 64° |
| 2026-04-21 09:45 | 36.85353 | 117.21010 | 83 ft | 1 kts | 64° |
| 2026-04-21 09:45 | 36.85369 | 117.21044 | 83 ft | 7 kts | 62° |
| 2026-04-21 09:45 | 36.85399 | 117.21122 | 83 ft | 11 kts | 65° |
| 2026-04-21 09:46 | 36.85430 | 117.21209 | 83 ft | 10 kts | 65° |
| 2026-04-21 09:46 | 36.85473 | 117.21270 | 83 ft | 9 kts | 18° |
| 2026-04-21 09:46 | 36.85536 | 117.21273 | 83 ft | 10 kts | 359° |
| 2026-04-21 09:46 | 36.85622 | 117.21273 | 83 ft | 14 kts | 359° |
| 2026-04-21 09:47 | 36.85724 | 117.21273 | 83 ft | 15 kts | 0° |
| 2026-04-21 09:47 | 36.85841 | 117.21273 | 83 ft | 17 kts | 360° |
| 2026-04-21 09:47 | 36.85959 | 117.21273 | 83 ft | 16 kts | 0° |
| 2026-04-21 09:47 | 36.86073 | 117.21273 | 83 ft | 15 kts | 359° |
| 2026-04-21 09:48 | 36.86171 | 117.21273 | 83 ft | 9 kts | 0° |
| 2026-04-21 09:48 | 36.86218 | 117.21314 | 83 ft | 8 kts | 80° |
| 2026-04-21 09:48 | 36.86248 | 117.21372 | 83 ft | 8 kts | 12° |
| 2026-04-21 09:48 | 36.86306 | 117.21374 | 83 ft | 9 kts | 0° |
| 2026-04-21 09:49 | 36.86389 | 117.21375 | 83 ft | 13 kts | 360° |
| 2026-04-21 09:49 | 36.86500 | 117.21375 | 83 ft | 17 kts | 0° |
| 2026-04-21 09:49 | 36.86638 | 117.21375 | 83 ft | 21 kts | 359° |
| 2026-04-21 09:49 | 36.86790 | 117.21373 | 83 ft | 21 kts | 359° |
| 2026-04-21 09:50 | 36.86935 | 117.21374 | 83 ft | 20 kts | 360° |
| 2026-04-21 09:50 | 36.87030 | 117.21374 | 83 ft | 20 kts | 360° |
| 2026-04-21 09:50 | 36.87312 | 117.21375 | 83 ft | 9 kts | 9° |
| 2026-04-21 09:51 | 36.87342 | 117.21431 | 83 ft | 8 kts | 89° |
| 2026-04-21 09:51 | 36.87342 | 117.21500 | 83 ft | 7 kts | 90° |
| 2026-04-21 09:51 | 36.87342 | 117.21570 | 83 ft | 7 kts | 92° |
| 2026-04-21 09:51 | 36.87306 | 117.21600 | 83 ft | 6 kts | 181° |
| 2026-04-21 09:52 | 36.87293 | 117.21600 | 83 ft | 0 kts | 181° |
| 2026-04-21 09:52 | 36.87291 | 117.21600 | 83 ft | 2 kts | 181° |
| 2026-04-21 09:52 | 36.87112 | 117.21599 | 83 ft | 59 kts | 180° |
| 2026-04-21 09:52 | 36.86474 | 117.21600 | 83 ft | 122 kts | 180° |
| 2026-04-21 09:53 | 36.85439 | 117.21604 | 156 ft | 164 kts | 181° |
| 2026-04-21 09:53 | 36.84319 | 117.21613 | 811 ft | 162 kts | 181° |
| 2026-04-21 09:53 | 36.83215 | 117.21629 | 1564 ft | 157 kts | 180° |
| 2026-04-21 09:53 | 36.82161 | 117.21571 | 2103 ft | 153 kts | 197° |
| 2026-04-21 09:54 | 36.81281 | 117.20795 | 2394 ft | 162 kts | 232° |
| 2026-04-21 09:54 | 36.80822 | 117.19525 | 2809 ft | 165 kts | 252° |
| 2026-04-21 09:54 | 36.80776 | 117.18068 | 3184 ft | 174 kts | 276° |
| 2026-04-21 09:54 | 36.81033 | 117.16543 | 3476 ft | 188 kts | 277° |
| 2026-04-21 09:55 | 36.81269 | 117.14892 | 3753 ft | 202 kts | 275° |
| 2026-04-21 09:55 | 36.81491 | 117.13075 | 4060 ft | 218 kts | 275° |
| 2026-04-21 09:55 | 36.81726 | 117.11153 | 4380 ft | 233 kts | 276° |
| 2026-04-21 09:55 | 36.81984 | 117.09081 | 4688 ft | 250 kts | 276° |
| 2026-04-21 09:56 | 36.82258 | 117.06924 | 5313 ft | 253 kts | 277° |
| 2026-04-21 09:56 | 36.82643 | 117.04772 | 5832 ft | 258 kts | 288° |
| 2026-04-21 09:56 | 36.83569 | 117.02849 | 5941 ft | 270 kts | 317° |
| 2026-04-21 09:56 | 36.85151 | 117.01502 | 6309 ft | 282 kts | 332° |
| 2026-04-21 09:57 | 36.86906 | 117.00365 | 7007 ft | 283 kts | 334° |
| 2026-04-21 09:57 | 36.88639 | 116.99246 | 7660 ft | 285 kts | 333° |
| 2026-04-21 09:57 | 36.90396 | 116.98045 | 8355 ft | 287 kts | 332° |
| 2026-04-21 09:57 | 36.92118 | 116.96838 | 9046 ft | 288 kts | 332° |
| 2026-04-21 09:58 | 36.93860 | 116.95593 | 9697 ft | 291 kts | 332° |
| 2026-04-21 09:58 | 36.95618 | 116.94347 | 10392 ft | 293 kts | 332° |
| 2026-04-21 09:58 | 36.97426 | 116.93064 | 10811 ft | 306 kts | 332° |
| 2026-04-21 09:58 | 36.99317 | 116.91720 | 11213 ft | 319 kts | 332° |
| 2026-04-21 09:59 | 37.01309 | 116.90303 | 11598 ft | 333 kts | 332° |
| 2026-04-21 09:59 | 37.03342 | 116.88856 | 12101 ft | 343 kts | 332° |
| 2026-04-21 09:59 | 37.05414 | 116.87379 | 12824 ft | 345 kts | 332° |
| 2026-04-21 09:59 | 37.07436 | 116.85749 | 13541 ft | 349 kts | 324° |
| 2026-04-21 10:00 | 37.09145 | 116.83602 | 14259 ft | 354 kts | 308° |
| 2026-04-21 10:00 | 37.10306 | 116.80898 | 14988 ft | 358 kts | 290° |
| 2026-04-21 10:00 | 37.10865 | 116.77852 | 15720 ft | 361 kts | 278° |
| 2026-04-21 10:00 | 37.11026 | 116.74747 | 16411 ft | 363 kts | 268° |
| 2026-04-21 10:01 | 37.10579 | 116.71651 | 17156 ft | 362 kts | 252° |
| 2026-04-21 10:01 | 37.09661 | 116.68721 | 17915 ft | 361 kts | 246° |
| 2026-04-21 10:01 | 37.08630 | 116.65887 | 18676 ft | 359 kts | 245° |
| 2026-04-21 10:01 | 37.07588 | 116.63085 | 19302 ft | 360 kts | 246° |
| 2026-04-21 10:02 | 37.05530 | 116.57331 | 20522 ft | 363 kts | 247° |
| 2026-04-21 10:02 | 37.04527 | 116.54434 | 21056 ft | 365 kts | 248° |
| 2026-04-21 10:02 | 37.03527 | 116.51521 | 21627 ft | 366 kts | 248° |
| 2026-04-21 10:03 | 37.02526 | 116.48600 | 22155 ft | 367 kts | 248° |
| 2026-04-21 10:03 | 37.01518 | 116.45654 | 22592 ft | 371 kts | 248° |
| 2026-04-21 10:03 | 37.00507 | 116.42702 | 23144 ft | 371 kts | 248° |
| 2026-04-21 10:03 | 36.99490 | 116.39733 | 23634 ft | 372 kts | 248° |
| 2026-04-21 10:04 | 36.98479 | 116.36778 | 24025 ft | 375 kts | 248° |
| 2026-04-21 10:04 | 36.97444 | 116.33759 | 24406 ft | 378 kts | 247° |
| 2026-04-21 10:04 | 36.96416 | 116.30772 | 24871 ft | 378 kts | 247° |
| 2026-04-21 10:04 | 36.95371 | 116.27733 | 25371 ft | 378 kts | 247° |
| 2026-04-21 10:05 | 36.94337 | 116.24736 | 25651 ft | 383 kts | 248° |
| 2026-04-21 10:05 | 36.93272 | 116.21657 | 26049 ft | 386 kts | 247° |
| 2026-04-21 10:05 | 36.92217 | 116.18607 | 26497 ft | 386 kts | 247° |
| 2026-04-21 10:05 | 36.91151 | 116.15526 | 26857 ft | 388 kts | 247° |
| 2026-04-21 10:06 | 36.90080 | 116.12437 | 27219 ft | 391 kts | 248° |
| 2026-04-21 10:06 | 36.88991 | 116.09302 | 27535 ft | 394 kts | 248° |
| 2026-04-21 10:06 | 36.87900 | 116.06163 | 27651 ft | 392 kts | 247° |
| 2026-04-21 10:06 | 36.86829 | 116.03080 | 27649 ft | 389 kts | 247° |
| 2026-04-21 10:07 | 36.85755 | 115.99995 | 27648 ft | 390 kts | 247° |
| 2026-04-21 10:07 | 36.84680 | 115.96905 | 27643 ft | 388 kts | 247° |
| 2026-04-21 10:07 | 36.83599 | 115.93803 | 27646 ft | 387 kts | 247° |
| 2026-04-21 10:07 | 36.82533 | 115.90739 | 27650 ft | 387 kts | 247° |
| 2026-04-21 10:08 | 36.81461 | 115.87659 | 27642 ft | 386 kts | 248° |
| 2026-04-21 10:08 | 36.80391 | 115.84593 | 27647 ft | 387 kts | 247° |
| 2026-04-21 10:08 | 36.79326 | 115.81539 | 27652 ft | 388 kts | 248° |
| 2026-04-21 10:08 | 36.78253 | 115.78462 | 27643 ft | 388 kts | 247° |
| 2026-04-21 10:09 | 36.77169 | 115.75365 | 27641 ft | 388 kts | 248° |
| 2026-04-21 10:09 | 36.76094 | 115.72310 | 27643 ft | 385 kts | 247° |
| 2026-04-21 10:09 | 36.75029 | 115.69282 | 27644 ft | 386 kts | 247° |
| 2026-04-21 10:09 | 36.73940 | 115.66190 | 27645 ft | 386 kts | 247° |
| 2026-04-21 10:10 | 36.72871 | 115.63155 | 27645 ft | 386 kts | 248° |
| 2026-04-21 10:10 | 36.71788 | 115.60084 | 27644 ft | 385 kts | 248° |
| 2026-04-21 10:10 | 36.70710 | 115.57037 | 27644 ft | 384 kts | 247° |
| 2026-04-21 10:10 | 36.69640 | 115.54013 | 27645 ft | 387 kts | 247° |
| 2026-04-21 10:11 | 36.68552 | 115.50935 | 27645 ft | 386 kts | 248° |
| 2026-04-21 10:11 | 36.67485 | 115.47921 | 27643 ft | 385 kts | 247° |
| 2026-04-21 10:11 | 36.66411 | 115.44885 | 27644 ft | 382 kts | 247° |
| 2026-04-21 10:11 | 36.65340 | 115.41858 | 27644 ft | 385 kts | 247° |
| 2026-04-21 10:12 | 36.64256 | 115.38802 | 27639 ft | 382 kts | 248° |
| 2026-04-21 10:12 | 36.63192 | 115.35805 | 27642 ft | 384 kts | 248° |
| 2026-04-21 10:12 | 36.62111 | 115.32764 | 27649 ft | 385 kts | 247° |
| 2026-04-21 10:12 | 36.61019 | 115.29700 | 27646 ft | 386 kts | 246° |
| 2026-04-21 10:13 | 36.59946 | 115.26691 | 27646 ft | 383 kts | 246° |
| 2026-04-21 10:13 | 36.58854 | 115.23631 | 27645 ft | 385 kts | 246° |
| 2026-04-21 10:13 | 36.57775 | 115.20617 | 27642 ft | 383 kts | 247° |
| 2026-04-21 10:13 | 36.56640 | 115.17608 | 27649 ft | 384 kts | 244° |
| 2026-04-21 10:14 | 36.55319 | 115.14749 | 27648 ft | 386 kts | 238° |
| 2026-04-21 10:14 | 36.53665 | 115.12116 | 27644 ft | 387 kts | 231° |
| 2026-04-21 10:14 | 36.51822 | 115.09710 | 27639 ft | 387 kts | 228° |
| 2026-04-21 10:14 | 36.49886 | 115.07401 | 27640 ft | 389 kts | 227° |
| 2026-04-21 10:15 | 36.47890 | 115.05096 | 27642 ft | 389 kts | 226° |
| 2026-04-21 10:15 | 36.45914 | 115.02828 | 27643 ft | 390 kts | 226° |
| 2026-04-21 10:15 | 36.43916 | 115.00527 | 27636 ft | 390 kts | 227° |
| 2026-04-21 10:15 | 36.41932 | 114.98225 | 27634 ft | 390 kts | 226° |
| 2026-04-21 10:16 | 36.39976 | 114.95942 | 27641 ft | 388 kts | 227° |
| 2026-04-21 10:16 | 36.38052 | 114.93591 | 27645 ft | 388 kts | 229° |
| 2026-04-21 10:16 | 36.36293 | 114.91082 | 27638 ft | 385 kts | 235° |
| 2026-04-21 10:16 | 36.34750 | 114.88392 | 27645 ft | 385 kts | 238° |
| 2026-04-21 10:17 | 36.33337 | 114.85583 | 27646 ft | 384 kts | 240° |
| 2026-04-21 10:17 | 36.31982 | 114.82729 | 27656 ft | 385 kts | 242° |
| 2026-04-21 10:17 | 36.30648 | 114.79866 | 27644 ft | 382 kts | 242° |
| 2026-04-21 10:17 | 36.29328 | 114.77019 | 27650 ft | 383 kts | 242° |
| 2026-04-21 10:18 | 36.27993 | 114.74153 | 27656 ft | 385 kts | 242° |
| 2026-04-21 10:18 | 36.26650 | 114.71282 | 27656 ft | 383 kts | 241° |
| 2026-04-21 10:18 | 36.25298 | 114.68471 | 27654 ft | 382 kts | 242° |
| 2026-04-21 10:18 | 36.23930 | 114.65662 | 27650 ft | 383 kts | 241° |
| 2026-04-21 10:19 | 36.22533 | 114.62807 | 27657 ft | 384 kts | 241° |
| 2026-04-21 10:19 | 36.21164 | 114.60014 | 27657 ft | 386 kts | 241° |
| 2026-04-21 10:19 | 36.19770 | 114.57179 | 27664 ft | 385 kts | 241° |
| 2026-04-21 10:19 | 36.18378 | 114.54354 | 27658 ft | 386 kts | 240° |
| 2026-04-21 10:20 | 36.16991 | 114.51533 | 27656 ft | 384 kts | 241° |
| 2026-04-21 10:20 | 36.15600 | 114.48709 | 27649 ft | 385 kts | 241° |
| 2026-04-21 10:20 | 36.14212 | 114.45886 | 27656 ft | 385 kts | 240° |
| 2026-04-21 10:20 | 36.12826 | 114.43064 | 27658 ft | 383 kts | 240° |
| 2026-04-21 10:21 | 36.11447 | 114.40257 | 27654 ft | 384 kts | 241° |
| 2026-04-21 10:21 | 36.10048 | 114.37412 | 27663 ft | 386 kts | 240° |
| 2026-04-21 10:21 | 36.08667 | 114.34608 | 27657 ft | 386 kts | 240° |
| 2026-04-21 10:21 | 36.07267 | 114.31772 | 27651 ft | 384 kts | 240° |
| 2026-04-21 10:22 | 36.05882 | 114.28966 | 27679 ft | 385 kts | 240° |
| 2026-04-21 10:22 | 36.04491 | 114.26153 | 27660 ft | 381 kts | 240° |
| 2026-04-21 10:22 | 36.03121 | 114.23387 | 27655 ft | 380 kts | 240° |
| 2026-04-21 10:22 | 36.01738 | 114.20590 | 27659 ft | 383 kts | 240° |
| 2026-04-21 10:23 | 36.00350 | 114.17793 | 27659 ft | 383 kts | 240° |
| 2026-04-21 10:23 | 35.98951 | 114.14985 | 27650 ft | 384 kts | 240° |
| 2026-04-21 10:23 | 35.97568 | 114.12203 | 27656 ft | 383 kts | 240° |
| 2026-04-21 10:23 | 35.96182 | 114.09415 | 27644 ft | 382 kts | 240° |
| 2026-04-21 10:24 | 35.94782 | 114.06602 | 27653 ft | 382 kts | 240° |
| 2026-04-21 10:24 | 35.93391 | 114.03806 | 27651 ft | 383 kts | 240° |
| 2026-04-21 10:24 | 35.91996 | 114.01014 | 27644 ft | 383 kts | 240° |
| 2026-04-21 10:24 | 35.90599 | 113.98217 | 27645 ft | 383 kts | 240° |
| 2026-04-21 10:25 | 35.89224 | 113.95465 | 27640 ft | 382 kts | 240° |
| 2026-04-21 10:25 | 35.87825 | 113.92665 | 27646 ft | 386 kts | 240° |
| 2026-04-21 10:25 | 35.86422 | 113.89860 | 27637 ft | 384 kts | 240° |
| 2026-04-21 10:25 | 35.85025 | 113.87066 | 27643 ft | 382 kts | 240° |
| 2026-04-21 10:26 | 35.83634 | 113.84287 | 27642 ft | 381 kts | 241° |
| 2026-04-21 10:26 | 35.82228 | 113.81480 | 27638 ft | 383 kts | 240° |
| 2026-04-21 10:26 | 35.80835 | 113.78704 | 27644 ft | 384 kts | 240° |
| 2026-04-21 10:26 | 35.79442 | 113.75925 | 27640 ft | 383 kts | 241° |
| 2026-04-21 10:27 | 35.78050 | 113.73154 | 27643 ft | 380 kts | 240° |
| 2026-04-21 10:27 | 35.76666 | 113.70403 | 27634 ft | 381 kts | 241° |
| 2026-04-21 10:27 | 35.75275 | 113.67644 | 27635 ft | 382 kts | 240° |
| 2026-04-21 10:27 | 35.73868 | 113.64854 | 27629 ft | 383 kts | 240° |
| 2026-04-21 10:28 | 35.72463 | 113.62064 | 27627 ft | 382 kts | 240° |
| 2026-04-21 10:28 | 35.71067 | 113.59300 | 27623 ft | 383 kts | 241° |
| 2026-04-21 10:28 | 35.69665 | 113.56520 | 27619 ft | 382 kts | 241° |
| 2026-04-21 10:28 | 35.68272 | 113.53756 | 27619 ft | 384 kts | 241° |
| 2026-04-21 10:29 | 35.66864 | 113.50966 | 27620 ft | 385 kts | 240° |
| 2026-04-21 10:29 | 35.65453 | 113.48174 | 27620 ft | 384 kts | 241° |
| 2026-04-21 10:29 | 35.64050 | 113.45398 | 27622 ft | 382 kts | 241° |
| 2026-04-21 10:29 | 35.62646 | 113.42623 | 27617 ft | 382 kts | 240° |
| 2026-04-21 10:30 | 35.61247 | 113.39863 | 27619 ft | 383 kts | 240° |
| 2026-04-21 10:30 | 35.59851 | 113.37085 | 27617 ft | 380 kts | 242° |
| 2026-04-21 10:30 | 35.58486 | 113.34321 | 27621 ft | 381 kts | 241° |
| 2026-04-21 10:30 | 35.57116 | 113.31522 | 27617 ft | 384 kts | 240° |
| 2026-04-21 10:31 | 35.55740 | 113.28712 | 27618 ft | 384 kts | 240° |
| 2026-04-21 10:31 | 35.54366 | 113.25911 | 27614 ft | 385 kts | 240° |
| 2026-04-21 10:31 | 35.52986 | 113.23107 | 27616 ft | 385 kts | 240° |
| 2026-04-21 10:31 | 35.51610 | 113.20319 | 27617 ft | 381 kts | 241° |
| 2026-04-21 10:32 | 35.50235 | 113.17537 | 27608 ft | 383 kts | 241° |
| 2026-04-21 10:32 | 35.48856 | 113.14742 | 27620 ft | 386 kts | 240° |
| 2026-04-21 10:32 | 35.47471 | 113.11945 | 27620 ft | 382 kts | 240° |
| 2026-04-21 10:32 | 35.46094 | 113.09169 | 27624 ft | 382 kts | 240° |
| 2026-04-21 10:33 | 35.44718 | 113.06398 | 27626 ft | 383 kts | 241° |
| 2026-04-21 10:33 | 35.43336 | 113.03614 | 27626 ft | 385 kts | 241° |
| 2026-04-21 10:33 | 35.41948 | 113.00818 | 27637 ft | 384 kts | 241° |
| 2026-04-21 10:33 | 35.40546 | 112.98001 | 27636 ft | 384 kts | 241° |
| 2026-04-21 10:34 | 35.39160 | 112.95215 | 27633 ft | 384 kts | 240° |
| 2026-04-21 10:34 | 35.37788 | 112.92458 | 27634 ft | 385 kts | 241° |
| 2026-04-21 10:34 | 35.36391 | 112.89657 | 27636 ft | 384 kts | 241° |
| 2026-04-21 10:34 | 35.34993 | 112.86856 | 27633 ft | 382 kts | 241° |
| 2026-04-21 10:35 | 35.33615 | 112.84096 | 27635 ft | 386 kts | 241° |
| 2026-04-21 10:35 | 35.32212 | 112.81287 | 27626 ft | 387 kts | 241° |
| 2026-04-21 10:35 | 35.30806 | 112.78477 | 27623 ft | 386 kts | 240° |
| 2026-04-21 10:35 | 35.29410 | 112.75691 | 27629 ft | 388 kts | 240° |
| 2026-04-21 10:36 | 35.28003 | 112.72880 | 27629 ft | 387 kts | 240° |
| 2026-04-21 10:36 | 35.26609 | 112.70100 | 27628 ft | 387 kts | 241° |
| 2026-04-21 10:36 | 35.25198 | 112.67288 | 27636 ft | 389 kts | 240° |
| 2026-04-21 10:36 | 35.23784 | 112.64472 | 27630 ft | 386 kts | 240° |
| 2026-04-21 10:37 | 35.22386 | 112.61690 | 27631 ft | 384 kts | 241° |
| 2026-04-21 10:37 | 35.20982 | 112.58896 | 27632 ft | 387 kts | 241° |
| 2026-04-21 10:37 | 35.19566 | 112.56072 | 27646 ft | 391 kts | 240° |
| 2026-04-21 10:37 | 35.18159 | 112.53244 | 27641 ft | 388 kts | 241° |
| 2026-04-21 10:38 | 35.16771 | 112.50441 | 27646 ft | 386 kts | 241° |
| 2026-04-21 10:38 | 35.15393 | 112.47656 | 27644 ft | 389 kts | 241° |
| 2026-04-21 10:38 | 35.13978 | 112.44800 | 27649 ft | 390 kts | 241° |
| 2026-04-21 10:38 | 35.12586 | 112.41991 | 27655 ft | 389 kts | 241° |
| 2026-04-21 10:39 | 35.11182 | 112.39165 | 27647 ft | 390 kts | 241° |
| 2026-04-21 10:39 | 35.09787 | 112.36353 | 27654 ft | 390 kts | 240° |
| 2026-04-21 10:39 | 35.08377 | 112.33520 | 27661 ft | 390 kts | 240° |
| 2026-04-21 10:39 | 35.06961 | 112.30678 | 27659 ft | 391 kts | 240° |
| 2026-04-21 10:40 | 35.05544 | 112.27839 | 27669 ft | 391 kts | 240° |
| 2026-04-21 10:40 | 35.04148 | 112.25046 | 27666 ft | 391 kts | 241° |
| 2026-04-21 10:40 | 35.02722 | 112.22189 | 27672 ft | 391 kts | 240° |
| 2026-04-21 10:40 | 35.01315 | 112.19373 | 27673 ft | 392 kts | 240° |
| 2026-04-21 10:41 | 34.99898 | 112.16537 | 27672 ft | 393 kts | 241° |
| 2026-04-21 10:41 | 34.98480 | 112.13705 | 27661 ft | 391 kts | 240° |
| 2026-04-21 10:41 | 34.97072 | 112.10895 | 27672 ft | 391 kts | 240° |
| 2026-04-21 10:41 | 34.95646 | 112.08052 | 27672 ft | 391 kts | 241° |
| 2026-04-21 10:42 | 34.94225 | 112.05221 | 27672 ft | 391 kts | 240° |
| 2026-04-21 10:42 | 34.92818 | 112.02422 | 27675 ft | 393 kts | 240° |
| 2026-04-21 10:42 | 34.91385 | 111.99576 | 27677 ft | 393 kts | 240° |
| 2026-04-21 10:42 | 34.89955 | 111.96738 | 27676 ft | 391 kts | 240° |
| 2026-04-21 10:43 | 34.88543 | 111.93932 | 27676 ft | 391 kts | 240° |
| 2026-04-21 10:43 | 34.87127 | 111.91123 | 27681 ft | 391 kts | 240° |
| 2026-04-21 10:43 | 34.85704 | 111.88279 | 27682 ft | 391 kts | 241° |
| 2026-04-21 10:43 | 34.84304 | 111.85469 | 27685 ft | 388 kts | 241° |
| 2026-04-21 10:44 | 34.82914 | 111.82675 | 27683 ft | 389 kts | 242° |
| 2026-04-21 10:44 | 34.81513 | 111.79855 | 27681 ft | 392 kts | 241° |
| 2026-04-21 10:44 | 34.80109 | 111.77032 | 27681 ft | 392 kts | 241° |
| 2026-04-21 10:44 | 34.78707 | 111.74213 | 27681 ft | 390 kts | 241° |
| 2026-04-21 10:45 | 34.77292 | 111.71372 | 27679 ft | 391 kts | 241° |
| 2026-04-21 10:45 | 34.75885 | 111.68550 | 27672 ft | 393 kts | 241° |
| 2026-04-21 10:45 | 34.74476 | 111.65726 | 27670 ft | 391 kts | 241° |
| 2026-04-21 10:45 | 34.73061 | 111.62894 | 27679 ft | 391 kts | 241° |
| 2026-04-21 10:46 | 34.71666 | 111.60111 | 27672 ft | 389 kts | 241° |
| 2026-04-21 10:46 | 34.70255 | 111.57295 | 27673 ft | 389 kts | 241° |
| 2026-04-21 10:46 | 34.68838 | 111.54467 | 27671 ft | 393 kts | 241° |
| 2026-04-21 10:46 | 34.67430 | 111.51660 | 27671 ft | 391 kts | 242° |
| 2026-04-21 10:47 | 34.66025 | 111.48864 | 27666 ft | 390 kts | 241° |
| 2026-04-21 10:47 | 34.64601 | 111.46029 | 27663 ft | 389 kts | 241° |
| 2026-04-21 10:47 | 34.63200 | 111.43242 | 27662 ft | 389 kts | 241° |
| 2026-04-21 10:47 | 34.61778 | 111.40414 | 27664 ft | 390 kts | 241° |
| 2026-04-21 10:48 | 34.60383 | 111.37641 | 27656 ft | 389 kts | 241° |
| 2026-04-21 10:48 | 34.58959 | 111.34816 | 27652 ft | 389 kts | 241° |
| 2026-04-21 10:48 | 34.57561 | 111.32045 | 27643 ft | 391 kts | 241° |
| 2026-04-21 10:48 | 34.56132 | 111.29220 | 27644 ft | 394 kts | 240° |
| 2026-04-21 10:49 | 34.54696 | 111.26382 | 27638 ft | 393 kts | 240° |
| 2026-04-21 10:49 | 34.53262 | 111.23548 | 27633 ft | 390 kts | 241° |
| 2026-04-21 10:49 | 34.51854 | 111.20767 | 27633 ft | 393 kts | 240° |
| 2026-04-21 10:49 | 34.50428 | 111.17950 | 27633 ft | 392 kts | 240° |
| 2026-04-21 10:50 | 34.49004 | 111.15138 | 27639 ft | 393 kts | 240° |
| 2026-04-21 10:50 | 34.47579 | 111.12327 | 27642 ft | 393 kts | 241° |
| 2026-04-21 10:50 | 34.46149 | 111.09515 | 27636 ft | 394 kts | 241° |
| 2026-04-21 10:50 | 34.44703 | 111.06675 | 27643 ft | 392 kts | 240° |
| 2026-04-21 10:51 | 34.43282 | 111.03880 | 27651 ft | 392 kts | 241° |
| 2026-04-21 10:51 | 34.41870 | 111.01091 | 27650 ft | 390 kts | 241° |
| 2026-04-21 10:51 | 34.40460 | 110.98279 | 27651 ft | 391 kts | 242° |
| 2026-04-21 10:51 | 34.39065 | 110.95487 | 27652 ft | 390 kts | 242° |
| 2026-04-21 10:52 | 34.37654 | 110.92660 | 27654 ft | 391 kts | 241° |
| 2026-04-21 10:52 | 34.36242 | 110.89830 | 27653 ft | 393 kts | 242° |
| 2026-04-21 10:52 | 34.34844 | 110.87035 | 27653 ft | 392 kts | 241° |
| 2026-04-21 10:52 | 34.33425 | 110.84204 | 27653 ft | 390 kts | 242° |
| 2026-04-21 10:53 | 34.32029 | 110.81417 | 27654 ft | 393 kts | 242° |
| 2026-04-21 10:53 | 34.30613 | 110.78597 | 27653 ft | 391 kts | 241° |
| 2026-04-21 10:53 | 34.29197 | 110.75778 | 27652 ft | 392 kts | 242° |
| 2026-04-21 10:53 | 34.27772 | 110.72948 | 27652 ft | 394 kts | 241° |
| 2026-04-21 10:54 | 34.26360 | 110.70145 | 27642 ft | 393 kts | 241° |
| 2026-04-21 10:54 | 34.24932 | 110.67311 | 27639 ft | 396 kts | 242° |
| 2026-04-21 10:54 | 34.23511 | 110.64492 | 27639 ft | 394 kts | 241° |
| 2026-04-21 10:54 | 34.22087 | 110.61672 | 27640 ft | 394 kts | 241° |
| 2026-04-21 10:55 | 34.20653 | 110.58833 | 27639 ft | 396 kts | 241° |
| 2026-04-21 10:55 | 34.19237 | 110.56033 | 27638 ft | 394 kts | 241° |
| 2026-04-21 10:55 | 34.17796 | 110.53185 | 27640 ft | 397 kts | 241° |
| 2026-04-21 10:55 | 34.16372 | 110.50368 | 27637 ft | 396 kts | 241° |
| 2026-04-21 10:56 | 34.14932 | 110.47526 | 27637 ft | 395 kts | 242° |
| 2026-04-21 10:56 | 34.13488 | 110.44675 | 27638 ft | 399 kts | 242° |
| 2026-04-21 10:56 | 34.12067 | 110.41856 | 27637 ft | 396 kts | 241° |
| 2026-04-21 10:56 | 34.10628 | 110.38994 | 27635 ft | 397 kts | 242° |
| 2026-04-21 10:57 | 34.09207 | 110.36163 | 27637 ft | 397 kts | 242° |
| 2026-04-21 10:57 | 34.07785 | 110.33330 | 27638 ft | 397 kts | 241° |
| 2026-04-21 10:57 | 34.06361 | 110.30495 | 27636 ft | 399 kts | 241° |
| 2026-04-21 10:57 | 34.04929 | 110.27647 | 27635 ft | 398 kts | 241° |
| 2026-04-21 10:58 | 34.03488 | 110.24784 | 27637 ft | 400 kts | 241° |
| 2026-04-21 10:58 | 34.02050 | 110.21930 | 27632 ft | 399 kts | 241° |
| 2026-04-21 10:58 | 34.00608 | 110.19070 | 27636 ft | 402 kts | 241° |
| 2026-04-21 10:58 | 33.99154 | 110.16191 | 27633 ft | 399 kts | 241° |
| 2026-04-21 10:59 | 33.97722 | 110.13356 | 27634 ft | 399 kts | 241° |
| 2026-04-21 10:59 | 33.96283 | 110.10510 | 27633 ft | 402 kts | 241° |
| 2026-04-21 10:59 | 33.94829 | 110.07637 | 27633 ft | 401 kts | 240° |
| 2026-04-21 10:59 | 33.93379 | 110.04775 | 27634 ft | 402 kts | 241° |
| 2026-04-21 11:00 | 33.91928 | 110.01914 | 27635 ft | 403 kts | 241° |
| 2026-04-21 11:00 | 33.90461 | 109.99027 | 27633 ft | 401 kts | 241° |
| 2026-04-21 11:00 | 33.89072 | 109.96144 | 27633 ft | 400 kts | 244° |
| 2026-04-21 11:00 | 33.87882 | 109.93142 | 27634 ft | 399 kts | 249° |
| 2026-04-21 11:01 | 33.86916 | 109.89997 | 27639 ft | 400 kts | 253° |
| 2026-04-21 11:01 | 33.86120 | 109.86826 | 27636 ft | 399 kts | 255° |
| 2026-04-21 11:01 | 33.85395 | 109.83609 | 27636 ft | 399 kts | 256° |
| 2026-04-21 11:02 | 33.84016 | 109.77161 | 27642 ft | 397 kts | 257° |
| 2026-04-21 11:02 | 33.83329 | 109.73948 | 27643 ft | 399 kts | 257° |
| 2026-04-21 11:02 | 33.82630 | 109.70702 | 27640 ft | 400 kts | 256° |
| 2026-04-21 11:02 | 33.81938 | 109.67519 | 27638 ft | 397 kts | 256° |
| 2026-04-21 11:03 | 33.81235 | 109.64314 | 27640 ft | 398 kts | 256° |
| 2026-04-21 11:03 | 33.80457 | 109.61111 | 27637 ft | 400 kts | 253° |
| 2026-04-21 11:03 | 33.79391 | 109.58044 | 27637 ft | 402 kts | 244° |
| 2026-04-21 11:03 | 33.77814 | 109.55234 | 27634 ft | 405 kts | 233° |
| 2026-04-21 11:04 | 33.75867 | 109.52837 | 27631 ft | 407 kts | 225° |
| 2026-04-21 11:04 | 33.73610 | 109.50718 | 27632 ft | 410 kts | 219° |
| 2026-04-21 11:04 | 33.71223 | 109.48837 | 27634 ft | 413 kts | 216° |
| 2026-04-21 11:04 | 33.68776 | 109.47072 | 27632 ft | 411 kts | 214° |
| 2026-04-21 11:05 | 33.66287 | 109.45342 | 27641 ft | 413 kts | 214° |
| 2026-04-21 11:05 | 33.63818 | 109.43645 | 27639 ft | 413 kts | 214° |
| 2026-04-21 11:05 | 33.61321 | 109.41925 | 27635 ft | 413 kts | 214° |
| 2026-04-21 11:05 | 33.58812 | 109.40189 | 27636 ft | 413 kts | 214° |
| 2026-04-21 11:06 | 33.56354 | 109.38479 | 27638 ft | 412 kts | 214° |
| 2026-04-21 11:06 | 33.53883 | 109.36752 | 27637 ft | 413 kts | 214° |
| 2026-04-21 11:06 | 33.51385 | 109.35003 | 27635 ft | 412 kts | 214° |
| 2026-04-21 11:06 | 33.48914 | 109.33270 | 27635 ft | 414 kts | 214° |
| 2026-04-21 11:07 | 33.46432 | 109.31527 | 27633 ft | 414 kts | 214° |
| 2026-04-21 11:07 | 33.43946 | 109.29781 | 27632 ft | 414 kts | 214° |
| 2026-04-21 11:07 | 33.41468 | 109.28042 | 27632 ft | 414 kts | 214° |
| 2026-04-21 11:07 | 33.38996 | 109.26308 | 27627 ft | 414 kts | 214° |
| 2026-04-21 11:08 | 33.36500 | 109.24558 | 27625 ft | 412 kts | 214° |
| 2026-04-21 11:08 | 33.34040 | 109.22835 | 27626 ft | 412 kts | 214° |
| 2026-04-21 11:08 | 33.31578 | 109.21112 | 27627 ft | 414 kts | 214° |
| 2026-04-21 11:08 | 33.29077 | 109.19363 | 27627 ft | 414 kts | 214° |
| 2026-04-21 11:09 | 33.26599 | 109.17631 | 27619 ft | 411 kts | 214° |
| 2026-04-21 11:09 | 33.24107 | 109.15887 | 27622 ft | 414 kts | 214° |
| 2026-04-21 11:09 | 33.21653 | 109.14174 | 27622 ft | 414 kts | 214° |
| 2026-04-21 11:09 | 33.19168 | 109.12440 | 27622 ft | 412 kts | 214° |
| 2026-04-21 11:10 | 33.16704 | 109.10722 | 27625 ft | 411 kts | 214° |
| 2026-04-21 11:10 | 33.14223 | 109.08994 | 27620 ft | 412 kts | 214° |
| 2026-04-21 11:10 | 33.11737 | 109.07262 | 27619 ft | 415 kts | 214° |
| 2026-04-21 11:10 | 33.09233 | 109.05518 | 27616 ft | 414 kts | 214° |
| 2026-04-21 11:11 | 33.06768 | 109.03805 | 27612 ft | 414 kts | 214° |
| 2026-04-21 11:11 | 33.04277 | 109.02075 | 27616 ft | 414 kts | 214° |
| 2026-04-21 11:11 | 33.01797 | 109.00352 | 27615 ft | 413 kts | 214° |
| 2026-04-21 11:11 | 32.99321 | 108.98635 | 27614 ft | 413 kts | 214° |
| 2026-04-21 11:12 | 32.96822 | 108.96900 | 27619 ft | 414 kts | 214° |
| 2026-04-21 11:12 | 32.94331 | 108.95173 | 27619 ft | 413 kts | 214° |
| 2026-04-21 11:12 | 32.91866 | 108.93463 | 27622 ft | 412 kts | 214° |
| 2026-04-21 11:12 | 32.89370 | 108.91735 | 27631 ft | 411 kts | 214° |
| 2026-04-21 11:13 | 32.86908 | 108.90033 | 27641 ft | 414 kts | 214° |
| 2026-04-21 11:13 | 32.84422 | 108.88313 | 27647 ft | 413 kts | 214° |
| 2026-04-21 11:13 | 32.81918 | 108.86584 | 27653 ft | 412 kts | 214° |
| 2026-04-21 11:13 | 32.79462 | 108.84890 | 27649 ft | 413 kts | 214° |
| 2026-04-21 11:14 | 32.76967 | 108.83170 | 27653 ft | 414 kts | 214° |
| 2026-04-21 11:14 | 32.74459 | 108.81441 | 27651 ft | 414 kts | 214° |
| 2026-04-21 11:14 | 32.71977 | 108.79732 | 27652 ft | 415 kts | 214° |
| 2026-04-21 11:14 | 32.69492 | 108.78020 | 27652 ft | 416 kts | 214° |
| 2026-04-21 11:15 | 32.66969 | 108.76286 | 27649 ft | 413 kts | 214° |
| 2026-04-21 11:15 | 32.64467 | 108.74566 | 27650 ft | 415 kts | 214° |
| 2026-04-21 11:15 | 32.61957 | 108.72842 | 27650 ft | 413 kts | 214° |
| 2026-04-21 11:15 | 32.59476 | 108.71138 | 27650 ft | 411 kts | 214° |
| 2026-04-21 11:16 | 32.56972 | 108.69420 | 27647 ft | 414 kts | 214° |
| 2026-04-21 11:16 | 32.54480 | 108.67709 | 27647 ft | 414 kts | 213° |
| 2026-04-21 11:16 | 32.51982 | 108.65995 | 27644 ft | 412 kts | 213° |
| 2026-04-21 11:16 | 32.49493 | 108.64290 | 27642 ft | 411 kts | 213° |
| 2026-04-21 11:17 | 32.47073 | 108.62536 | 27639 ft | 412 kts | 218° |
| 2026-04-21 11:17 | 32.44843 | 108.60420 | 27629 ft | 409 kts | 227° |
| 2026-04-21 11:17 | 32.42996 | 108.57888 | 27631 ft | 406 kts | 236° |
| 2026-04-21 11:17 | 32.41533 | 108.55013 | 27625 ft | 404 kts | 244° |
| 2026-04-21 11:18 | 32.40417 | 108.52004 | 27623 ft | 402 kts | 250° |
| 2026-04-21 11:18 | 32.39534 | 108.48835 | 27617 ft | 405 kts | 255° |
| 2026-04-21 11:18 | 32.38800 | 108.45667 | 27613 ft | 404 kts | 256° |
| 2026-04-21 11:18 | 32.38114 | 108.42448 | 27618 ft | 403 kts | 256° |
| 2026-04-21 11:19 | 32.37442 | 108.39223 | 27614 ft | 404 kts | 256° |
| 2026-04-21 11:19 | 32.36762 | 108.35986 | 27616 ft | 404 kts | 257° |
| 2026-04-21 11:19 | 32.36077 | 108.32767 | 27605 ft | 404 kts | 256° |
| 2026-04-21 11:19 | 32.35379 | 108.29540 | 27601 ft | 404 kts | 256° |
| 2026-04-21 11:20 | 32.34683 | 108.26351 | 27594 ft | 405 kts | 255° |
| 2026-04-21 11:20 | 32.33955 | 108.23126 | 27607 ft | 403 kts | 255° |
| 2026-04-21 11:20 | 32.33179 | 108.19949 | 27604 ft | 403 kts | 253° |
| 2026-04-21 11:20 | 32.32367 | 108.16784 | 27599 ft | 405 kts | 253° |
| 2026-04-21 11:21 | 32.31540 | 108.13612 | 27583 ft | 404 kts | 253° |
| 2026-04-21 11:21 | 32.30716 | 108.10461 | 27583 ft | 404 kts | 253° |
| 2026-04-21 11:21 | 32.29890 | 108.07306 | 27590 ft | 403 kts | 253° |
| 2026-04-21 11:21 | 32.29055 | 108.04095 | 27586 ft | 406 kts | 253° |
| 2026-04-21 11:22 | 32.28241 | 108.00960 | 27582 ft | 404 kts | 253° |
| 2026-04-21 11:22 | 32.27418 | 107.97787 | 27581 ft | 405 kts | 254° |
| 2026-04-21 11:22 | 32.26595 | 107.94610 | 27577 ft | 407 kts | 253° |
| 2026-04-21 11:22 | 32.25767 | 107.91411 | 27575 ft | 406 kts | 253° |
| 2026-04-21 11:23 | 32.24947 | 107.88238 | 27584 ft | 404 kts | 253° |
| 2026-04-21 11:23 | 32.24124 | 107.85062 | 27579 ft | 405 kts | 253° |
| 2026-04-21 11:23 | 32.23297 | 107.81869 | 27572 ft | 406 kts | 253° |
| 2026-04-21 11:23 | 32.22475 | 107.78701 | 27578 ft | 406 kts | 253° |
| 2026-04-21 11:24 | 32.21650 | 107.75521 | 27580 ft | 407 kts | 253° |
| 2026-04-21 11:24 | 32.20817 | 107.72338 | 27579 ft | 405 kts | 252° |
| 2026-04-21 11:24 | 32.19867 | 107.69250 | 27568 ft | 404 kts | 248° |
| 2026-04-21 11:24 | 32.18535 | 107.66328 | 27557 ft | 407 kts | 237° |
| 2026-04-21 11:25 | 32.16711 | 107.63753 | 27563 ft | 411 kts | 227° |
| 2026-04-21 11:25 | 32.14552 | 107.61499 | 27570 ft | 412 kts | 222° |
| 2026-04-21 11:25 | 32.12303 | 107.59418 | 27565 ft | 412 kts | 220° |
| 2026-04-21 11:25 | 32.10002 | 107.57389 | 27558 ft | 413 kts | 219° |
| 2026-04-21 11:26 | 32.07699 | 107.55394 | 27560 ft | 413 kts | 219° |
| 2026-04-21 11:26 | 32.05362 | 107.53372 | 27553 ft | 413 kts | 219° |
| 2026-04-21 11:26 | 32.03078 | 107.51389 | 27557 ft | 413 kts | 219° |
| 2026-04-21 11:26 | 32.00750 | 107.49360 | 27564 ft | 413 kts | 219° |
| 2026-04-21 11:27 | 31.98461 | 107.47356 | 27569 ft | 414 kts | 219° |
| 2026-04-21 11:27 | 31.96117 | 107.45299 | 27562 ft | 414 kts | 220° |
| 2026-04-21 11:27 | 31.93838 | 107.43295 | 27564 ft | 414 kts | 220° |
| 2026-04-21 11:27 | 31.91509 | 107.41247 | 27564 ft | 414 kts | 220° |
| 2026-04-21 11:28 | 31.89207 | 107.39221 | 27556 ft | 414 kts | 220° |
| 2026-04-21 11:28 | 31.86906 | 107.37196 | 27549 ft | 413 kts | 220° |
| 2026-04-21 11:28 | 31.84598 | 107.35164 | 27556 ft | 414 kts | 220° |
| 2026-04-21 11:28 | 31.82308 | 107.33152 | 27552 ft | 414 kts | 219° |
| 2026-04-21 11:29 | 31.79958 | 107.31145 | 27559 ft | 413 kts | 218° |
| 2026-04-21 11:29 | 31.77530 | 107.29347 | 27555 ft | 416 kts | 212° |
| 2026-04-21 11:29 | 31.74962 | 107.27803 | 27556 ft | 417 kts | 208° |
| 2026-04-21 11:29 | 31.72319 | 107.26402 | 27549 ft | 417 kts | 207° |
| 2026-04-21 11:30 | 31.69628 | 107.25052 | 27543 ft | 417 kts | 206° |
| 2026-04-21 11:30 | 31.66961 | 107.23732 | 27550 ft | 416 kts | 206° |
| 2026-04-21 11:30 | 31.64306 | 107.22411 | 27547 ft | 416 kts | 206° |
| 2026-04-21 11:30 | 31.61671 | 107.21088 | 27542 ft | 416 kts | 207° |
| 2026-04-21 11:31 | 31.58995 | 107.19733 | 27541 ft | 416 kts | 207° |
| 2026-04-21 11:31 | 31.56336 | 107.18378 | 27538 ft | 416 kts | 207° |
| 2026-04-21 11:31 | 31.53693 | 107.17025 | 27537 ft | 415 kts | 207° |
| 2026-04-21 11:31 | 31.51049 | 107.15669 | 27537 ft | 415 kts | 207° |
| 2026-04-21 11:32 | 31.48413 | 107.14314 | 27544 ft | 415 kts | 207° |
| 2026-04-21 11:32 | 31.45749 | 107.12944 | 27544 ft | 417 kts | 207° |
| 2026-04-21 11:32 | 31.43082 | 107.11573 | 27538 ft | 415 kts | 207° |
| 2026-04-21 11:32 | 31.40459 | 107.10226 | 27536 ft | 416 kts | 207° |
| 2026-04-21 11:33 | 31.37785 | 107.08852 | 27532 ft | 414 kts | 207° |
| 2026-04-21 11:33 | 31.35163 | 107.07505 | 27537 ft | 414 kts | 207° |
| 2026-04-21 11:33 | 31.32519 | 107.06148 | 27533 ft | 415 kts | 207° |
| 2026-04-21 11:33 | 31.29875 | 107.04793 | 27526 ft | 415 kts | 207° |
| 2026-04-21 11:34 | 31.27235 | 107.03442 | 27519 ft | 412 kts | 207° |
| 2026-04-21 11:34 | 31.24626 | 107.02109 | 27520 ft | 413 kts | 207° |
| 2026-04-21 11:34 | 31.21972 | 107.00748 | 27517 ft | 416 kts | 207° |
| 2026-04-21 11:34 | 31.19327 | 106.99398 | 27515 ft | 414 kts | 207° |
| 2026-04-21 11:35 | 31.16689 | 106.98052 | 27512 ft | 413 kts | 207° |
| 2026-04-21 11:35 | 31.14049 | 106.96706 | 27518 ft | 413 kts | 207° |
| 2026-04-21 11:35 | 31.11405 | 106.95359 | 27514 ft | 416 kts | 207° |
| 2026-04-21 11:35 | 31.08733 | 106.93997 | 27511 ft | 415 kts | 207° |
| 2026-04-21 11:36 | 31.06104 | 106.92659 | 27506 ft | 413 kts | 207° |
| 2026-04-21 11:36 | 31.03457 | 106.91311 | 27507 ft | 413 kts | 207° |
| 2026-04-21 11:36 | 31.00827 | 106.89971 | 27506 ft | 415 kts | 207° |
| 2026-04-21 11:36 | 30.98178 | 106.88625 | 27508 ft | 414 kts | 207° |
| 2026-04-21 11:37 | 30.95523 | 106.87277 | 27502 ft | 414 kts | 207° |
| 2026-04-21 11:37 | 30.92888 | 106.85939 | 27490 ft | 414 kts | 207° |
| 2026-04-21 11:37 | 30.90276 | 106.84614 | 27254 ft | 415 kts | 207° |
| 2026-04-21 11:37 | 30.87612 | 106.83262 | 26999 ft | 415 kts | 207° |
| 2026-04-21 11:38 | 30.84962 | 106.81919 | 26750 ft | 415 kts | 207° |
| 2026-04-21 11:38 | 30.82310 | 106.80578 | 26503 ft | 415 kts | 207° |
| 2026-04-21 11:38 | 30.79688 | 106.79250 | 26251 ft | 415 kts | 207° |
| 2026-04-21 11:38 | 30.77030 | 106.77905 | 25999 ft | 415 kts | 207° |
| 2026-04-21 11:39 | 30.74372 | 106.76561 | 25752 ft | 418 kts | 207° |
| 2026-04-21 11:39 | 30.71701 | 106.75210 | 25504 ft | 419 kts | 206° |
| 2026-04-21 11:39 | 30.69028 | 106.73859 | 25254 ft | 419 kts | 206° |
| 2026-04-21 11:39 | 30.66351 | 106.72506 | 25002 ft | 420 kts | 206° |
| 2026-04-21 11:40 | 30.63651 | 106.71220 | 24756 ft | 420 kts | 203° |
| 2026-04-21 11:40 | 30.60851 | 106.70256 | 24500 ft | 419 kts | 194° |
| 2026-04-21 11:40 | 30.57973 | 106.69911 | 24244 ft | 411 kts | 184° |
| 2026-04-21 11:40 | 30.55181 | 106.69988 | 24002 ft | 401 kts | 180° |
| 2026-04-21 11:41 | 30.52421 | 106.70229 | 23761 ft | 392 kts | 178° |
| 2026-04-21 11:41 | 30.49727 | 106.70529 | 23520 ft | 386 kts | 177° |
| 2026-04-21 11:41 | 30.47047 | 106.70838 | 23290 ft | 387 kts | 177° |
| 2026-04-21 11:41 | 30.44346 | 106.71138 | 23048 ft | 388 kts | 178° |
| 2026-04-21 11:42 | 30.41698 | 106.71418 | 22815 ft | 384 kts | 178° |
| 2026-04-21 11:42 | 30.39005 | 106.71690 | 22571 ft | 382 kts | 178° |
| 2026-04-21 11:42 | 30.36358 | 106.71934 | 22335 ft | 384 kts | 179° |
| 2026-04-21 11:42 | 30.33715 | 106.72014 | 22094 ft | 381 kts | 184° |
| 2026-04-21 11:43 | 30.31082 | 106.71679 | 21857 ft | 380 kts | 193° |
| 2026-04-21 11:43 | 30.28488 | 106.70988 | 21617 ft | 377 kts | 197° |
| 2026-04-21 11:43 | 30.25963 | 106.70141 | 21380 ft | 377 kts | 199° |
| 2026-04-21 11:43 | 30.23472 | 106.69241 | 21144 ft | 377 kts | 199° |
| 2026-04-21 11:44 | 30.20971 | 106.68322 | 20903 ft | 375 kts | 199° |
| 2026-04-21 11:44 | 30.18498 | 106.67421 | 20664 ft | 375 kts | 199° |
| 2026-04-21 11:44 | 30.16009 | 106.66524 | 20428 ft | 374 kts | 199° |
| 2026-04-21 11:44 | 30.13506 | 106.65632 | 20185 ft | 373 kts | 199° |
| 2026-04-21 11:45 | 30.11031 | 106.64758 | 19947 ft | 372 kts | 199° |
| 2026-04-21 11:45 | 30.08535 | 106.63881 | 19678 ft | 371 kts | 199° |
| 2026-04-21 11:45 | 30.06053 | 106.63013 | 19268 ft | 373 kts | 199° |
| 2026-04-21 11:45 | 30.03569 | 106.62149 | 18745 ft | 372 kts | 199° |
| 2026-04-21 11:46 | 30.01098 | 106.61296 | 18200 ft | 371 kts | 199° |
| 2026-04-21 11:46 | 29.98626 | 106.60442 | 17640 ft | 369 kts | 199° |
| 2026-04-21 11:46 | 29.96191 | 106.59596 | 17083 ft | 368 kts | 199° |
| 2026-04-21 11:46 | 29.93729 | 106.58738 | 16530 ft | 366 kts | 199° |
| 2026-04-21 11:47 | 29.91321 | 106.57900 | 15973 ft | 365 kts | 199° |
| 2026-04-21 11:47 | 29.88882 | 106.57055 | 15422 ft | 363 kts | 199° |
| 2026-04-21 11:47 | 29.86471 | 106.56223 | 14882 ft | 361 kts | 199° |
| 2026-04-21 11:47 | 29.84092 | 106.55400 | 14352 ft | 359 kts | 199° |
| 2026-04-21 11:48 | 29.81686 | 106.54567 | 13814 ft | 358 kts | 199° |
| 2026-04-21 11:48 | 29.79319 | 106.53748 | 13255 ft | 357 kts | 199° |
| 2026-04-21 11:48 | 29.76952 | 106.52927 | 12723 ft | 355 kts | 199° |
| 2026-04-21 11:48 | 29.74590 | 106.52109 | 12266 ft | 351 kts | 199° |
| 2026-04-21 11:49 | 29.72281 | 106.51310 | 12045 ft | 340 kts | 199° |
| 2026-04-21 11:49 | 29.70037 | 106.50538 | 11923 ft | 326 kts | 199° |
| 2026-04-21 11:49 | 29.67908 | 106.49804 | 11701 ft | 317 kts | 199° |
| 2026-04-21 11:49 | 29.65795 | 106.49074 | 11322 ft | 314 kts | 199° |
| 2026-04-21 11:50 | 29.63729 | 106.48360 | 11080 ft | 307 kts | 199° |
| 2026-04-21 11:50 | 29.61684 | 106.47657 | 10787 ft | 301 kts | 199° |
| 2026-04-21 11:50 | 29.59698 | 106.46979 | 10463 ft | 298 kts | 199° |
| 2026-04-21 11:50 | 29.57705 | 106.46292 | 10091 ft | 296 kts | 199° |
| 2026-04-21 11:51 | 29.55749 | 106.45619 | 9730 ft | 294 kts | 199° |
| 2026-04-21 11:51 | 29.53792 | 106.44946 | 9371 ft | 292 kts | 199° |
| 2026-04-21 11:51 | 29.51858 | 106.44282 | 9021 ft | 290 kts | 198° |
| 2026-04-21 11:51 | 29.49905 | 106.43613 | 8716 ft | 286 kts | 198° |
| 2026-04-21 11:52 | 29.48046 | 106.42973 | 8620 ft | 274 kts | 198° |
| 2026-04-21 11:52 | 29.46228 | 106.42358 | 8514 ft | 270 kts | 195° |
| 2026-04-21 11:52 | 29.44387 | 106.42001 | 8267 ft | 271 kts | 180° |
| 2026-04-21 11:52 | 29.42602 | 106.42539 | 8018 ft | 265 kts | 146° |
| 2026-04-21 11:53 | 29.41381 | 106.44048 | 7771 ft | 257 kts | 114° |
| 2026-04-21 11:53 | 29.40812 | 106.45956 | 7537 ft | 250 kts | 103° |
| 2026-04-21 11:53 | 29.40374 | 106.47864 | 7280 ft | 247 kts | 104° |
| 2026-04-21 11:53 | 29.40024 | 106.49772 | 7035 ft | 243 kts | 94° |
| 2026-04-21 11:54 | 29.40110 | 106.51653 | 6812 ft | 234 kts | 72° |
| 2026-04-21 11:54 | 29.40952 | 106.53189 | 6558 ft | 224 kts | 39° |
| 2026-04-21 11:54 | 29.42294 | 106.54000 | 6313 ft | 218 kts | 19° |
| 2026-04-21 11:54 | 29.43736 | 106.54503 | 6069 ft | 214 kts | 17° |
| 2026-04-21 11:55 | 29.45155 | 106.54986 | 5826 ft | 211 kts | 17° |
| 2026-04-21 11:55 | 29.46548 | 106.55466 | 5593 ft | 206 kts | 17° |
| 2026-04-21 11:55 | 29.47917 | 106.55936 | 5347 ft | 200 kts | 17° |
| 2026-04-21 11:55 | 29.49233 | 106.56387 | 5100 ft | 195 kts | 17° |
| 2026-04-21 11:56 | 29.50514 | 106.56824 | 4898 ft | 189 kts | 17° |
| 2026-04-21 11:56 | 29.51763 | 106.57251 | 4896 ft | 186 kts | 17° |
| 2026-04-21 11:56 | 29.53013 | 106.57680 | 4889 ft | 186 kts | 17° |
| 2026-04-21 11:56 | 29.54244 | 106.58102 | 4695 ft | 181 kts | 17° |
| 2026-04-21 11:57 | 29.55447 | 106.58513 | 4451 ft | 180 kts | 17° |
| 2026-04-21 11:57 | 29.56632 | 106.58922 | 4201 ft | 177 kts | 17° |
| 2026-04-21 11:57 | 29.57800 | 106.59319 | 3960 ft | 174 kts | 17° |
| 2026-04-21 11:57 | 29.58916 | 106.59701 | 3764 ft | 159 kts | 17° |
| 2026-04-21 11:58 | 29.59956 | 106.60060 | 3495 ft | 151 kts | 17° |
| 2026-04-21 11:58 | 29.60942 | 106.60396 | 3320 ft | 150 kts | 17° |
| 2026-04-21 11:58 | 29.61953 | 106.60742 | 3111 ft | 150 kts | 17° |
| 2026-04-21 11:58 | 29.62950 | 106.61084 | 2910 ft | 148 kts | 16° |
| 2026-04-21 11:59 | 29.63933 | 106.61423 | 2720 ft | 150 kts | 16° |
| 2026-04-21 11:59 | 29.64943 | 106.61767 | 2518 ft | 150 kts | 15° |
| 2026-04-21 11:59 | 29.65936 | 106.62108 | 2318 ft | 151 kts | 15° |
| 2026-04-21 11:59 | 29.66949 | 106.62457 | 2124 ft | 151 kts | 15° |
| 2026-04-21 12:00 | 29.67972 | 106.62806 | 1912 ft | 151 kts | 14° |
| 2026-04-21 12:00 | 29.68979 | 106.63154 | 1718 ft | 151 kts | 14° |
| 2026-04-21 12:00 | 29.69984 | 106.63506 | 1520 ft | 151 kts | 14° |
| 2026-04-21 12:00 | 29.70996 | 106.63848 | 1371 ft | 146 kts | 14° |
| 2026-04-21 12:01 | 29.71773 | 106.64105 | 1369 ft | 77 kts | 17° |
| 2026-04-21 12:01 | 29.72134 | 106.64231 | 1369 ft | 30 kts | 17° |
| 2026-04-21 12:01 | 29.72268 | 106.64290 | 1369 ft | 19 kts | 31° |
| 2026-04-21 12:01 | 29.72370 | 106.64384 | 1369 ft | 18 kts | 42° |
| 2026-04-21 12:02 | 29.72426 | 106.64472 | 1369 ft | 11 kts | 68° |
| 2026-04-21 12:02 | 29.72515 | 106.64600 | 1369 ft | 9 kts | 93° |
| 2026-04-21 12:02 | 29.72498 | 106.64671 | 1369 ft | 9 kts | 107° |
| 2026-04-21 12:03 | 29.72477 | 106.64751 | 1369 ft | 12 kts | 107° |
| 2026-04-21 12:03 | 29.72447 | 106.64864 | 1369 ft | 11 kts | 107° |
| 2026-04-21 12:03 | 29.72413 | 106.64930 | 1369 ft | 9 kts | 158° |
| 2026-04-21 12:03 | 29.72348 | 106.64920 | 1369 ft | 9 kts | 197° |
| 2026-04-21 12:04 | 29.72285 | 106.64914 | 1369 ft | 8 kts | 146° |
| 2026-04-21 12:04 | 29.72243 | 106.64962 | 1369 ft | 8 kts | 169° |
| 2026-04-21 12:04 | 29.72169 | 106.64944 | 1369 ft | 12 kts | 197° |
| 2026-04-21 12:04 | 29.72069 | 106.64909 | 1369 ft | 17 kts | 197° |
| 2026-04-21 12:05 | 29.71955 | 106.64870 | 1369 ft | 16 kts | 197° |
| 2026-04-21 12:05 | 29.71842 | 106.64830 | 1369 ft | 16 kts | 197° |
| 2026-04-21 12:05 | 29.71730 | 106.64792 | 1369 ft | 16 kts | 197° |
| 2026-04-21 12:05 | 29.71619 | 106.64753 | 1369 ft | 16 kts | 197° |
| 2026-04-21 12:06 | 29.71509 | 106.64716 | 1369 ft | 16 kts | 197° |
| 2026-04-21 12:06 | 29.71400 | 106.64678 | 1369 ft | 16 kts | 197° |
| 2026-04-21 12:06 | 29.71292 | 106.64641 | 1369 ft | 16 kts | 197° |
| 2026-04-21 12:06 | 29.71190 | 106.64606 | 1369 ft | 14 kts | 197° |
| 2026-04-21 12:07 | 29.71129 | 106.64600 | 1369 ft | 7 kts | 141° |
| 2026-04-21 12:07 | 29.71096 | 106.64643 | 1369 ft | 5 kts | 130° |
| 2026-04-21 12:07 | 29.71077 | 106.64668 | 1369 ft | 3 kts | 130° |
| 2026-04-21 12:07 | 29.71072 | 106.64676 | 1369 ft | 0 kts | 130° |